sensor_id;sensor_type;location;lat;lon;timestamp;P1;durP1;ratioP1;P2;durP2;ratioP2
74632;SDS011;63139;52.018;8.552;2023-05-10T00:00:31;5.93;;;5.22;;
74632;SDS011;63139;52.018;8.552;2023-05-10T00:02:59;9.05;;;6.63;;
74632;SDS011;63139;52.018;8.552;2023-05-10T00:05:28;7.80;;;6.50;;
74632;SDS011;63139;52.018;8.552;2023-05-10T00:07:56;7.45;;;5.93;;
74632;SDS011;63139;52.018;8.552;2023-05-10T00:10:25;9.32;;;7.00;;
74632;SDS011;63139;52.018;8.552;2023-05-10T00:12:53;9.02;;;6.95;;
74632;SDS011;63139;52.018;8.552;2023-05-10T00:15:21;8.23;;;6.45;;
74632;SDS011;63139;52.018;8.552;2023-05-10T00:17:49;6.65;;;5.93;;
74632;SDS011;63139;52.018;8.552;2023-05-10T00:20:17;8.00;;;6.00;;
74632;SDS011;63139;52.018;8.552;2023-05-10T00:22:46;7.60;;;6.68;;
74632;SDS011;63139;52.018;8.552;2023-05-10T00:25:15;8.98;;;7.28;;
74632;SDS011;63139;52.018;8.552;2023-05-10T00:27:43;6.57;;;5.88;;
74632;SDS011;63139;52.018;8.552;2023-05-10T00:30:11;11.27;;;7.95;;
74632;SDS011;63139;52.018;8.552;2023-05-10T00:32:39;9.15;;;7.57;;
74632;SDS011;63139;52.018;8.552;2023-05-10T00:35:08;7.53;;;6.45;;
74632;SDS011;63139;52.018;8.552;2023-05-10T00:37:36;10.00;;;7.40;;
74632;SDS011;63139;52.018;8.552;2023-05-10T00:40:06;11.90;;;8.20;;
74632;SDS011;63139;52.018;8.552;2023-05-10T00:42:35;9.02;;;7.15;;
74632;SDS011;63139;52.018;8.552;2023-05-10T00:45:03;8.43;;;7.35;;
74632;SDS011;63139;52.018;8.552;2023-05-10T00:47:32;9.07;;;7.30;;
74632;SDS011;63139;52.018;8.552;2023-05-10T00:50:01;10.35;;;6.80;;
74632;SDS011;63139;52.018;8.552;2023-05-10T00:52:30;15.30;;;8.55;;
74632;SDS011;63139;52.018;8.552;2023-05-10T00:54:58;8.13;;;6.90;;
74632;SDS011;63139;52.018;8.552;2023-05-10T00:57:29;9.75;;;7.57;;
74632;SDS011;63139;52.018;8.552;2023-05-10T00:59:57;8.52;;;7.05;;
74632;SDS011;63139;52.018;8.552;2023-05-10T01:02:25;8.63;;;6.90;;
74632;SDS011;63139;52.018;8.552;2023-05-10T01:04:55;8.63;;;6.50;;
74632;SDS011;63139;52.018;8.552;2023-05-10T01:07:23;8.50;;;6.95;;
74632;SDS011;63139;52.018;8.552;2023-05-10T01:09:52;10.30;;;7.78;;
74632;SDS011;63139;52.018;8.552;2023-05-10T01:12:20;9.88;;;7.28;;
74632;SDS011;63139;52.018;8.552;2023-05-10T01:14:49;9.55;;;6.82;;
74632;SDS011;63139;52.018;8.552;2023-05-10T01:17:18;7.53;;;6.15;;
74632;SDS011;63139;52.018;8.552;2023-05-10T01:19:47;5.78;;;4.93;;
74632;SDS011;63139;52.018;8.552;2023-05-10T01:22:22;7.30;;;6.10;;
74632;SDS011;63139;52.018;8.552;2023-05-10T01:25:11;7.68;;;5.90;;
74632;SDS011;63139;52.018;8.552;2023-05-10T01:28:05;6.60;;;5.45;;
74632;SDS011;63139;52.018;8.552;2023-05-10T01:30:54;7.80;;;5.90;;
74632;SDS011;63139;52.018;8.552;2023-05-10T01:33:37;8.60;;;5.95;;
74632;SDS011;63139;52.018;8.552;2023-05-10T01:36:13;6.03;;;5.20;;
74632;SDS011;63139;52.018;8.552;2023-05-10T01:38:47;6.22;;;5.05;;
74632;SDS011;63139;52.018;8.552;2023-05-10T01:41:19;8.60;;;6.32;;
74632;SDS011;63139;52.018;8.552;2023-05-10T01:46:28;8.38;;;6.32;;
74632;SDS011;63139;52.018;8.552;2023-05-10T01:49:02;8.40;;;7.25;;
74632;SDS011;63139;52.018;8.552;2023-05-10T01:51:36;9.45;;;7.70;;
74632;SDS011;63139;52.018;8.552;2023-05-10T01:54:09;10.27;;;8.05;;
74632;SDS011;63139;52.018;8.552;2023-05-10T01:56:40;11.82;;;8.88;;
74632;SDS011;63139;52.018;8.552;2023-05-10T01:59:12;8.55;;;6.60;;
74632;SDS011;63139;52.018;8.552;2023-05-10T02:01:42;9.05;;;6.43;;
74632;SDS011;63139;52.018;8.552;2023-05-10T02:04:14;9.35;;;6.40;;
74632;SDS011;63139;52.018;8.552;2023-05-10T02:06:45;9.30;;;6.85;;
74632;SDS011;63139;52.018;8.552;2023-05-10T02:09:14;7.47;;;5.57;;
74632;SDS011;63139;52.018;8.552;2023-05-10T02:11:45;7.95;;;6.03;;
74632;SDS011;63139;52.018;8.552;2023-05-10T02:14:16;7.75;;;5.80;;
74632;SDS011;63139;52.018;8.552;2023-05-10T02:16:46;8.50;;;6.00;;
74632;SDS011;63139;52.018;8.552;2023-05-10T02:19:16;6.13;;;5.10;;
74632;SDS011;63139;52.018;8.552;2023-05-10T02:21:47;5.63;;;4.47;;
74632;SDS011;63139;52.018;8.552;2023-05-10T02:24:18;4.95;;;4.10;;
74632;SDS011;63139;52.018;8.552;2023-05-10T02:26:47;4.93;;;3.92;;
74632;SDS011;63139;52.018;8.552;2023-05-10T02:29:17;7.93;;;4.82;;
74632;SDS011;63139;52.018;8.552;2023-05-10T02:31:46;3.90;;;3.50;;
74632;SDS011;63139;52.018;8.552;2023-05-10T02:34:17;6.00;;;4.05;;
74632;SDS011;63139;52.018;8.552;2023-05-10T02:36:45;6.22;;;4.57;;
74632;SDS011;63139;52.018;8.552;2023-05-10T02:39:13;5.43;;;4.40;;
74632;SDS011;63139;52.018;8.552;2023-05-10T02:41:43;6.45;;;4.53;;
74632;SDS011;63139;52.018;8.552;2023-05-10T02:44:14;4.72;;;3.88;;
74632;SDS011;63139;52.018;8.552;2023-05-10T02:46:45;5.88;;;4.60;;
74632;SDS011;63139;52.018;8.552;2023-05-10T02:49:14;5.78;;;4.35;;
74632;SDS011;63139;52.018;8.552;2023-05-10T02:51:46;5.05;;;4.22;;
74632;SDS011;63139;52.018;8.552;2023-05-10T02:54:19;4.85;;;4.10;;
74632;SDS011;63139;52.018;8.552;2023-05-10T02:56:53;9.73;;;6.35;;
74632;SDS011;63139;52.018;8.552;2023-05-10T02:59:25;8.07;;;6.03;;
74632;SDS011;63139;52.018;8.552;2023-05-10T03:01:54;7.55;;;5.80;;
74632;SDS011;63139;52.018;8.552;2023-05-10T03:04:23;9.75;;;7.15;;
74632;SDS011;63139;52.018;8.552;2023-05-10T03:06:54;6.78;;;5.85;;
74632;SDS011;63139;52.018;8.552;2023-05-10T03:09:22;6.60;;;5.75;;
74632;SDS011;63139;52.018;8.552;2023-05-10T03:11:54;7.05;;;5.63;;
74632;SDS011;63139;52.018;8.552;2023-05-10T03:14:31;7.93;;;6.20;;
74632;SDS011;63139;52.018;8.552;2023-05-10T03:17:11;8.07;;;6.50;;
74632;SDS011;63139;52.018;8.552;2023-05-10T03:19:48;7.90;;;6.07;;
74632;SDS011;63139;52.018;8.552;2023-05-10T03:22:23;9.90;;;7.13;;
74632;SDS011;63139;52.018;8.552;2023-05-10T03:24:54;11.18;;;8.30;;
74632;SDS011;63139;52.018;8.552;2023-05-10T03:27:27;12.35;;;9.45;;
74632;SDS011;63139;52.018;8.552;2023-05-10T03:29:55;15.00;;;9.93;;
74632;SDS011;63139;52.018;8.552;2023-05-10T03:32:24;12.20;;;8.68;;
74632;SDS011;63139;52.018;8.552;2023-05-10T03:34:55;19.17;;;12.18;;
74632;SDS011;63139;52.018;8.552;2023-05-10T03:37:24;15.25;;;10.05;;
74632;SDS011;63139;52.018;8.552;2023-05-10T03:39:52;11.27;;;8.85;;
74632;SDS011;63139;52.018;8.552;2023-05-10T03:42:20;16.27;;;9.55;;
74632;SDS011;63139;52.018;8.552;2023-05-10T03:44:48;9.85;;;8.35;;
74632;SDS011;63139;52.018;8.552;2023-05-10T03:47:16;8.68;;;6.90;;
74632;SDS011;63139;52.018;8.552;2023-05-10T03:49:45;7.57;;;5.25;;
74632;SDS011;63139;52.018;8.552;2023-05-10T03:52:14;7.63;;;5.63;;
74632;SDS011;63139;52.018;8.552;2023-05-10T03:54:42;6.32;;;4.50;;
74632;SDS011;63139;52.018;8.552;2023-05-10T03:57:10;4.82;;;4.28;;
74632;SDS011;63139;52.018;8.552;2023-05-10T03:59:38;5.90;;;4.75;;
74632;SDS011;63139;52.018;8.552;2023-05-10T04:02:06;5.20;;;4.20;;
74632;SDS011;63139;52.018;8.552;2023-05-10T04:04:35;5.40;;;4.35;;
74632;SDS011;63139;52.018;8.552;2023-05-10T04:07:04;5.40;;;4.60;;
74632;SDS011;63139;52.018;8.552;2023-05-10T04:09:33;4.30;;;3.67;;
74632;SDS011;63139;52.018;8.552;2023-05-10T04:12:01;5.57;;;3.80;;
74632;SDS011;63139;52.018;8.552;2023-05-10T04:14:29;3.67;;;2.90;;
74632;SDS011;63139;52.018;8.552;2023-05-10T04:16:57;2.70;;;2.50;;
74632;SDS011;63139;52.018;8.552;2023-05-10T04:19:28;2.00;;;1.80;;
74632;SDS011;63139;52.018;8.552;2023-05-10T04:21:57;2.53;;;2.10;;
74632;SDS011;63139;52.018;8.552;2023-05-10T04:24:25;2.35;;;1.42;;
74632;SDS011;63139;52.018;8.552;2023-05-10T04:26:55;1.30;;;1.20;;
74632;SDS011;63139;52.018;8.552;2023-05-10T04:29:23;7.75;;;1.52;;
74632;SDS011;63139;52.018;8.552;2023-05-10T04:32:11;1.23;;;1.13;;
74632;SDS011;63139;52.018;8.552;2023-05-10T04:34:39;1.10;;;1.00;;
74632;SDS011;63139;52.018;8.552;2023-05-10T04:37:07;1.00;;;1.00;;
74632;SDS011;63139;52.018;8.552;2023-05-10T04:39:35;1.45;;;1.20;;
74632;SDS011;63139;52.018;8.552;2023-05-10T04:42:08;2.80;;;1.05;;
74632;SDS011;63139;52.018;8.552;2023-05-10T04:44:36;1.30;;;1.20;;
74632;SDS011;63139;52.018;8.552;2023-05-10T04:47:04;1.20;;;1.05;;
74632;SDS011;63139;52.018;8.552;2023-05-10T04:49:32;1.25;;;1.20;;
74632;SDS011;63139;52.018;8.552;2023-05-10T04:52:00;1.30;;;1.20;;
74632;SDS011;63139;52.018;8.552;2023-05-10T04:54:28;2.08;;;1.50;;
74632;SDS011;63139;52.018;8.552;2023-05-10T04:56:57;2.15;;;1.73;;
74632;SDS011;63139;52.018;8.552;2023-05-10T04:59:26;1.73;;;1.63;;
74632;SDS011;63139;52.018;8.552;2023-05-10T05:01:55;2.53;;;1.42;;
74632;SDS011;63139;52.018;8.552;2023-05-10T05:04:23;1.48;;;1.38;;
74632;SDS011;63139;52.018;8.552;2023-05-10T05:06:51;1.70;;;1.60;;
74632;SDS011;63139;52.018;8.552;2023-05-10T05:09:19;2.15;;;1.95;;
74632;SDS011;63139;52.018;8.552;2023-05-10T05:11:47;2.17;;;1.83;;
74632;SDS011;63139;52.018;8.552;2023-05-10T05:14:15;1.92;;;1.67;;
74632;SDS011;63139;52.018;8.552;2023-05-10T05:16:45;1.88;;;1.77;;
74632;SDS011;63139;52.018;8.552;2023-05-10T05:19:13;1.88;;;1.75;;
74632;SDS011;63139;52.018;8.552;2023-05-10T05:21:41;1.77;;;1.50;;
74632;SDS011;63139;52.018;8.552;2023-05-10T05:24:09;2.03;;;1.75;;
74632;SDS011;63139;52.018;8.552;2023-05-10T05:26:39;2.00;;;1.90;;
74632;SDS011;63139;52.018;8.552;2023-05-10T05:29:07;1.65;;;1.55;;
74632;SDS011;63139;52.018;8.552;2023-05-10T05:31:35;2.40;;;2.20;;
74632;SDS011;63139;52.018;8.552;2023-05-10T05:34:04;2.25;;;2.05;;
74632;SDS011;63139;52.018;8.552;2023-05-10T05:36:35;3.33;;;2.47;;
74632;SDS011;63139;52.018;8.552;2023-05-10T05:39:04;2.88;;;2.20;;
74632;SDS011;63139;52.018;8.552;2023-05-10T05:41:32;2.42;;;2.22;;
74632;SDS011;63139;52.018;8.552;2023-05-10T05:44:00;2.50;;;2.17;;
74632;SDS011;63139;52.018;8.552;2023-05-10T05:46:28;2.38;;;2.17;;
74632;SDS011;63139;52.018;8.552;2023-05-10T05:48:56;2.05;;;1.90;;
74632;SDS011;63139;52.018;8.552;2023-05-10T05:51:26;3.80;;;2.40;;
74632;SDS011;63139;52.018;8.552;2023-05-10T05:53:54;3.30;;;2.30;;
74632;SDS011;63139;52.018;8.552;2023-05-10T05:56:22;2.22;;;2.03;;
74632;SDS011;63139;52.018;8.552;2023-05-10T05:58:51;2.20;;;2.00;;
74632;SDS011;63139;52.018;8.552;2023-05-10T06:01:19;2.72;;;1.92;;
74632;SDS011;63139;52.018;8.552;2023-05-10T06:03:47;2.42;;;1.90;;
74632;SDS011;63139;52.018;8.552;2023-05-10T06:06:18;3.20;;;1.95;;
74632;SDS011;63139;52.018;8.552;2023-05-10T06:08:48;2.10;;;2.00;;
74632;SDS011;63139;52.018;8.552;2023-05-10T06:11:16;2.47;;;2.28;;
74632;SDS011;63139;52.018;8.552;2023-05-10T06:13:44;1.88;;;1.63;;
74632;SDS011;63139;52.018;8.552;2023-05-10T06:16:13;2.20;;;1.80;;
74632;SDS011;63139;52.018;8.552;2023-05-10T06:18:41;1.85;;;1.75;;
74632;SDS011;63139;52.018;8.552;2023-05-10T06:21:09;3.33;;;1.90;;
74632;SDS011;63139;52.018;8.552;2023-05-10T06:23:37;2.22;;;2.00;;
74632;SDS011;63139;52.018;8.552;2023-05-10T06:26:07;2.58;;;1.85;;
74632;SDS011;63139;52.018;8.552;2023-05-10T06:28:35;2.17;;;1.98;;
74632;SDS011;63139;52.018;8.552;2023-05-10T06:31:04;1.90;;;1.80;;
74632;SDS011;63139;52.018;8.552;2023-05-10T06:33:33;2.47;;;1.90;;
74632;SDS011;63139;52.018;8.552;2023-05-10T06:36:01;2.22;;;1.88;;
74632;SDS011;63139;52.018;8.552;2023-05-10T06:38:30;1.90;;;1.73;;
74632;SDS011;63139;52.018;8.552;2023-05-10T06:40:58;2.10;;;1.60;;
74632;SDS011;63139;52.018;8.552;2023-05-10T06:43:28;3.40;;;1.80;;
74632;SDS011;63139;52.018;8.552;2023-05-10T06:45:56;5.18;;;2.10;;
74632;SDS011;63139;52.018;8.552;2023-05-10T06:48:24;2.92;;;2.10;;
74632;SDS011;63139;52.018;8.552;2023-05-10T06:50:53;2.25;;;2.00;;
74632;SDS011;63139;52.018;8.552;2023-05-10T06:53:21;2.38;;;2.05;;
74632;SDS011;63139;52.018;8.552;2023-05-10T06:55:49;2.40;;;1.58;;
74632;SDS011;63139;52.018;8.552;2023-05-10T06:58:17;4.07;;;2.40;;
74632;SDS011;63139;52.018;8.552;2023-05-10T07:00:46;3.03;;;2.22;;
74632;SDS011;63139;52.018;8.552;2023-05-10T07:03:15;2.33;;;2.13;;
74632;SDS011;63139;52.018;8.552;2023-05-10T07:05:43;2.15;;;1.95;;
74632;SDS011;63139;52.018;8.552;2023-05-10T07:08:14;3.15;;;2.10;;
74632;SDS011;63139;52.018;8.552;2023-05-10T07:10:42;3.08;;;2.20;;
74632;SDS011;63139;52.018;8.552;2023-05-10T07:13:10;2.35;;;2.15;;
74632;SDS011;63139;52.018;8.552;2023-05-10T07:15:38;3.03;;;2.13;;
74632;SDS011;63139;52.018;8.552;2023-05-10T07:18:08;4.43;;;2.25;;
74632;SDS011;63139;52.018;8.552;2023-05-10T07:20:36;3.40;;;2.75;;
74632;SDS011;63139;52.018;8.552;2023-05-10T07:23:04;4.38;;;2.70;;
74632;SDS011;63139;52.018;8.552;2023-05-10T07:25:32;4.10;;;2.95;;
74632;SDS011;63139;52.018;8.552;2023-05-10T07:28:00;3.30;;;2.90;;
74632;SDS011;63139;52.018;8.552;2023-05-10T07:30:28;5.20;;;3.80;;
74632;SDS011;63139;52.018;8.552;2023-05-10T07:32:57;5.93;;;4.30;;
74632;SDS011;63139;52.018;8.552;2023-05-10T07:35:27;4.63;;;3.72;;
74632;SDS011;63139;52.018;8.552;2023-05-10T07:37:55;5.97;;;3.65;;
74632;SDS011;63139;52.018;8.552;2023-05-10T07:40:23;4.53;;;4.10;;
74632;SDS011;63139;52.018;8.552;2023-05-10T07:42:51;4.95;;;4.43;;
74632;SDS011;63139;52.018;8.552;2023-05-10T07:45:19;5.93;;;4.85;;
74632;SDS011;63139;52.018;8.552;2023-05-10T07:47:47;5.43;;;4.43;;
74632;SDS011;63139;52.018;8.552;2023-05-10T07:50:15;6.28;;;5.00;;
74632;SDS011;63139;52.018;8.552;2023-05-10T07:52:45;6.38;;;4.50;;
74632;SDS011;63139;52.018;8.552;2023-05-10T07:55:13;8.95;;;5.43;;
74632;SDS011;63139;52.018;8.552;2023-05-10T07:57:42;12.05;;;6.13;;
74632;SDS011;63139;52.018;8.552;2023-05-10T08:00:12;10.85;;;6.65;;
74632;SDS011;63139;52.018;8.552;2023-05-10T08:02:40;9.48;;;6.10;;
74632;SDS011;63139;52.018;8.552;2023-05-10T08:05:09;10.52;;;6.80;;
74632;SDS011;63139;52.018;8.552;2023-05-10T08:07:37;13.02;;;7.30;;
74632;SDS011;63139;52.018;8.552;2023-05-10T08:10:08;10.40;;;7.47;;
74632;SDS011;63139;52.018;8.552;2023-05-10T08:12:37;10.45;;;6.82;;
74632;SDS011;63139;52.018;8.552;2023-05-10T08:15:06;11.95;;;7.38;;
74632;SDS011;63139;52.018;8.552;2023-05-10T08:17:35;12.15;;;8.13;;
74632;SDS011;63139;52.018;8.552;2023-05-10T08:20:04;13.05;;;7.57;;
74632;SDS011;63139;52.018;8.552;2023-05-10T08:22:33;10.20;;;6.82;;
74632;SDS011;63139;52.018;8.552;2023-05-10T08:25:01;14.05;;;8.57;;
74632;SDS011;63139;52.018;8.552;2023-05-10T08:27:31;14.48;;;9.00;;
74632;SDS011;63139;52.018;8.552;2023-05-10T08:29:59;11.80;;;8.07;;
74632;SDS011;63139;52.018;8.552;2023-05-10T08:32:27;14.77;;;9.10;;
74632;SDS011;63139;52.018;8.552;2023-05-10T08:34:55;15.73;;;10.00;;
74632;SDS011;63139;52.018;8.552;2023-05-10T08:37:23;13.73;;;8.63;;
74632;SDS011;63139;52.018;8.552;2023-05-10T08:39:51;14.57;;;8.88;;
74632;SDS011;63139;52.018;8.552;2023-05-10T08:42:19;12.88;;;7.88;;
74632;SDS011;63139;52.018;8.552;2023-05-10T08:44:53;11.93;;;7.70;;
74632;SDS011;63139;52.018;8.552;2023-05-10T08:47:23;12.70;;;8.15;;
74632;SDS011;63139;52.018;8.552;2023-05-10T08:49:53;14.98;;;9.32;;
74632;SDS011;63139;52.018;8.552;2023-05-10T08:52:22;15.93;;;8.70;;
74632;SDS011;63139;52.018;8.552;2023-05-10T08:54:54;15.52;;;8.27;;
74632;SDS011;63139;52.018;8.552;2023-05-10T08:57:22;13.57;;;8.93;;
74632;SDS011;63139;52.018;8.552;2023-05-10T08:59:50;13.75;;;8.13;;
74632;SDS011;63139;52.018;8.552;2023-05-10T09:02:19;12.75;;;8.48;;
74632;SDS011;63139;52.018;8.552;2023-05-10T09:04:48;11.02;;;7.30;;
74632;SDS011;63139;52.018;8.552;2023-05-10T09:07:16;13.48;;;9.27;;
74632;SDS011;63139;52.018;8.552;2023-05-10T09:09:45;13.02;;;8.95;;
74632;SDS011;63139;52.018;8.552;2023-05-10T09:12:14;12.98;;;8.52;;
74632;SDS011;63139;52.018;8.552;2023-05-10T09:14:43;15.02;;;9.38;;
74632;SDS011;63139;52.018;8.552;2023-05-10T09:17:13;16.13;;;10.05;;
74632;SDS011;63139;52.018;8.552;2023-05-10T09:19:42;17.08;;;9.88;;
74632;SDS011;63139;52.018;8.552;2023-05-10T09:22:12;15.80;;;9.80;;
74632;SDS011;63139;52.018;8.552;2023-05-10T09:24:42;20.00;;;12.23;;
74632;SDS011;63139;52.018;8.552;2023-05-10T09:27:11;23.55;;;13.65;;
74632;SDS011;63139;52.018;8.552;2023-05-10T09:29:39;18.98;;;12.02;;
74632;SDS011;63139;52.018;8.552;2023-05-10T09:32:07;21.83;;;12.80;;
74632;SDS011;63139;52.018;8.552;2023-05-10T09:34:35;19.20;;;12.38;;
74632;SDS011;63139;52.018;8.552;2023-05-10T09:37:08;18.45;;;12.20;;
74632;SDS011;63139;52.018;8.552;2023-05-10T09:39:37;24.10;;;14.10;;
74632;SDS011;63139;52.018;8.552;2023-05-10T09:42:06;18.70;;;12.15;;
74632;SDS011;63139;52.018;8.552;2023-05-10T09:44:35;17.92;;;12.15;;
74632;SDS011;63139;52.018;8.552;2023-05-10T09:47:05;18.08;;;11.65;;
74632;SDS011;63139;52.018;8.552;2023-05-10T09:49:34;18.85;;;11.65;;
74632;SDS011;63139;52.018;8.552;2023-05-10T09:52:02;20.15;;;12.80;;
74632;SDS011;63139;52.018;8.552;2023-05-10T09:54:33;18.33;;;11.68;;
74632;SDS011;63139;52.018;8.552;2023-05-10T09:57:02;16.23;;;10.68;;
74632;SDS011;63139;52.018;8.552;2023-05-10T09:59:32;16.23;;;10.65;;
74632;SDS011;63139;52.018;8.552;2023-05-10T10:02:01;22.30;;;13.32;;
74632;SDS011;63139;52.018;8.552;2023-05-10T10:04:30;16.08;;;11.15;;
74632;SDS011;63139;52.018;8.552;2023-05-10T10:06:59;17.25;;;10.90;;
74632;SDS011;63139;52.018;8.552;2023-05-10T10:09:29;15.88;;;10.90;;
74632;SDS011;63139;52.018;8.552;2023-05-10T10:11:58;16.10;;;10.73;;
74632;SDS011;63139;52.018;8.552;2023-05-10T10:14:26;11.30;;;8.57;;
74632;SDS011;63139;52.018;8.552;2023-05-10T10:16:55;13.00;;;9.40;;
74632;SDS011;63139;52.018;8.552;2023-05-10T10:19:33;13.02;;;9.05;;
74632;SDS011;63139;52.018;8.552;2023-05-10T10:22:03;14.93;;;9.98;;
74632;SDS011;63139;52.018;8.552;2023-05-10T10:24:32;9.77;;;7.80;;
74632;SDS011;63139;52.018;8.552;2023-05-10T10:27:03;13.00;;;8.80;;
74632;SDS011;63139;52.018;8.552;2023-05-10T10:29:39;11.13;;;7.40;;
74632;SDS011;63139;52.018;8.552;2023-05-10T10:32:19;8.57;;;6.65;;
74632;SDS011;63139;52.018;8.552;2023-05-10T10:34:53;9.73;;;7.38;;
74632;SDS011;63139;52.018;8.552;2023-05-10T10:37:23;11.27;;;7.45;;
74632;SDS011;63139;52.018;8.552;2023-05-10T10:42:54;8.13;;;6.15;;
74632;SDS011;63139;52.018;8.552;2023-05-10T10:45:23;9.13;;;6.78;;
74632;SDS011;63139;52.018;8.552;2023-05-10T10:50:55;8.73;;;6.35;;
74632;SDS011;63139;52.018;8.552;2023-05-10T10:53:25;9.20;;;6.63;;
74632;SDS011;63139;52.018;8.552;2023-05-10T10:56:02;8.43;;;5.65;;
74632;SDS011;63139;52.018;8.552;2023-05-10T10:58:36;8.68;;;5.00;;
74632;SDS011;63139;52.018;8.552;2023-05-10T11:01:12;6.32;;;4.75;;
74632;SDS011;63139;52.018;8.552;2023-05-10T11:03:54;6.70;;;4.30;;
74632;SDS011;63139;52.018;8.552;2023-05-10T11:06:37;6.75;;;4.40;;
74632;SDS011;63139;52.018;8.552;2023-05-10T11:09:06;6.63;;;4.63;;
74632;SDS011;63139;52.018;8.552;2023-05-10T11:11:35;6.05;;;4.85;;
74632;SDS011;63139;52.018;8.552;2023-05-10T11:14:19;7.70;;;5.22;;
74632;SDS011;63139;52.018;8.552;2023-05-10T11:16:48;8.20;;;5.30;;
74632;SDS011;63139;52.018;8.552;2023-05-10T11:19:16;9.15;;;5.00;;
74632;SDS011;63139;52.018;8.552;2023-05-10T11:21:46;6.78;;;4.80;;
74632;SDS011;63139;52.018;8.552;2023-05-10T11:24:16;6.22;;;4.47;;
74632;SDS011;63139;52.018;8.552;2023-05-10T11:26:45;6.75;;;4.65;;
74632;SDS011;63139;52.018;8.552;2023-05-10T11:29:18;6.25;;;4.70;;
74632;SDS011;63139;52.018;8.552;2023-05-10T11:31:47;8.27;;;5.13;;
74632;SDS011;63139;52.018;8.552;2023-05-10T11:34:25;8.13;;;5.20;;
74632;SDS011;63139;52.018;8.552;2023-05-10T11:36:55;8.50;;;5.40;;
74632;SDS011;63139;52.018;8.552;2023-05-10T11:39:25;8.77;;;4.90;;
74632;SDS011;63139;52.018;8.552;2023-05-10T11:41:55;9.82;;;5.30;;
74632;SDS011;63139;52.018;8.552;2023-05-10T11:44:25;8.48;;;5.10;;
74632;SDS011;63139;52.018;8.552;2023-05-10T11:46:58;5.95;;;4.88;;
74632;SDS011;63139;52.018;8.552;2023-05-10T11:49:26;7.57;;;5.28;;
74632;SDS011;63139;52.018;8.552;2023-05-10T11:52:03;7.80;;;6.10;;
74632;SDS011;63139;52.018;8.552;2023-05-10T11:54:32;6.65;;;5.18;;
74632;SDS011;63139;52.018;8.552;2023-05-10T11:57:01;9.48;;;5.90;;
74632;SDS011;63139;52.018;8.552;2023-05-10T11:59:30;7.07;;;5.03;;
74632;SDS011;63139;52.018;8.552;2023-05-10T12:01:59;7.53;;;5.03;;
74632;SDS011;63139;52.018;8.552;2023-05-10T12:04:27;6.35;;;5.00;;
74632;SDS011;63139;52.018;8.552;2023-05-10T12:06:56;6.07;;;4.72;;
74632;SDS011;63139;52.018;8.552;2023-05-10T12:09:24;9.20;;;4.75;;
74632;SDS011;63139;52.018;8.552;2023-05-10T12:11:55;8.57;;;5.85;;
74632;SDS011;63139;52.018;8.552;2023-05-10T12:14:24;10.57;;;5.45;;
74632;SDS011;63139;52.018;8.552;2023-05-10T12:16:54;10.57;;;6.63;;
74632;SDS011;63139;52.018;8.552;2023-05-10T12:19:24;13.25;;;7.30;;
74632;SDS011;63139;52.018;8.552;2023-05-10T12:21:52;10.80;;;7.30;;
74632;SDS011;63139;52.018;8.552;2023-05-10T12:24:21;10.18;;;6.40;;
74632;SDS011;63139;52.018;8.552;2023-05-10T12:26:51;12.98;;;7.32;;
74632;SDS011;63139;52.018;8.552;2023-05-10T12:29:19;11.15;;;7.78;;
74632;SDS011;63139;52.018;8.552;2023-05-10T12:31:51;14.27;;;8.35;;
74632;SDS011;63139;52.018;8.552;2023-05-10T12:34:25;13.90;;;8.40;;
74632;SDS011;63139;52.018;8.552;2023-05-10T12:36:54;12.75;;;7.93;;
74632;SDS011;63139;52.018;8.552;2023-05-10T12:39:23;15.05;;;9.30;;
74632;SDS011;63139;52.018;8.552;2023-05-10T12:41:51;13.13;;;9.00;;
74632;SDS011;63139;52.018;8.552;2023-05-10T12:44:19;16.35;;;9.18;;
74632;SDS011;63139;52.018;8.552;2023-05-10T12:46:47;12.20;;;8.23;;
74632;SDS011;63139;52.018;8.552;2023-05-10T12:49:15;13.65;;;8.80;;
74632;SDS011;63139;52.018;8.552;2023-05-10T12:51:46;15.25;;;9.35;;
74632;SDS011;63139;52.018;8.552;2023-05-10T12:54:14;13.27;;;8.65;;
74632;SDS011;63139;52.018;8.552;2023-05-10T12:56:42;14.48;;;9.00;;
74632;SDS011;63139;52.018;8.552;2023-05-10T12:59:11;19.27;;;10.68;;
74632;SDS011;63139;52.018;8.552;2023-05-10T13:01:39;13.95;;;9.30;;
74632;SDS011;63139;52.018;8.552;2023-05-10T13:04:07;14.60;;;9.30;;
74632;SDS011;63139;52.018;8.552;2023-05-10T13:06:35;13.52;;;9.05;;
74632;SDS011;63139;52.018;8.552;2023-05-10T13:09:04;12.38;;;8.48;;
74632;SDS011;63139;52.018;8.552;2023-05-10T13:11:33;13.80;;;8.80;;
74632;SDS011;63139;52.018;8.552;2023-05-10T13:14:01;13.55;;;8.77;;
74632;SDS011;63139;52.018;8.552;2023-05-10T13:16:29;13.32;;;8.90;;
74632;SDS011;63139;52.018;8.552;2023-05-10T13:18:58;14.63;;;8.98;;
74632;SDS011;63139;52.018;8.552;2023-05-10T13:21:26;12.45;;;7.90;;
74632;SDS011;63139;52.018;8.552;2023-05-10T13:23:54;13.02;;;8.70;;
74632;SDS011;63139;52.018;8.552;2023-05-10T13:26:24;12.65;;;8.50;;
74632;SDS011;63139;52.018;8.552;2023-05-10T13:28:52;14.70;;;9.38;;
74632;SDS011;63139;52.018;8.552;2023-05-10T13:31:22;14.65;;;9.68;;
74632;SDS011;63139;52.018;8.552;2023-05-10T13:33:50;13.25;;;9.35;;
74632;SDS011;63139;52.018;8.552;2023-05-10T13:36:18;16.27;;;10.07;;
74632;SDS011;63139;52.018;8.552;2023-05-10T13:38:46;19.58;;;11.35;;
74632;SDS011;63139;52.018;8.552;2023-05-10T13:41:14;13.57;;;7.18;;
74632;SDS011;63139;52.018;8.552;2023-05-10T13:43:44;11.63;;;5.93;;
74632;SDS011;63139;52.018;8.552;2023-05-10T13:46:12;10.05;;;6.40;;
74632;SDS011;63139;52.018;8.552;2023-05-10T13:48:40;10.85;;;6.60;;
74632;SDS011;63139;52.018;8.552;2023-05-10T13:51:08;9.30;;;6.78;;
74632;SDS011;63139;52.018;8.552;2023-05-10T13:53:36;13.85;;;8.60;;
74632;SDS011;63139;52.018;8.552;2023-05-10T13:56:04;14.93;;;8.15;;
74632;SDS011;63139;52.018;8.552;2023-05-10T13:58:33;11.23;;;6.68;;
74632;SDS011;63139;52.018;8.552;2023-05-10T14:01:03;13.15;;;8.40;;
74632;SDS011;63139;52.018;8.552;2023-05-10T14:03:32;10.77;;;7.03;;
74632;SDS011;63139;52.018;8.552;2023-05-10T14:06:00;12.55;;;7.60;;
74632;SDS011;63139;52.018;8.552;2023-05-10T14:08:28;11.50;;;7.82;;
74632;SDS011;63139;52.018;8.552;2023-05-10T14:10:56;15.73;;;7.78;;
74632;SDS011;63139;52.018;8.552;2023-05-10T14:13:25;12.30;;;7.65;;
74632;SDS011;63139;52.018;8.552;2023-05-10T14:15:53;13.10;;;8.32;;
74632;SDS011;63139;52.018;8.552;2023-05-10T14:18:23;12.02;;;7.82;;
74632;SDS011;63139;52.018;8.552;2023-05-10T14:20:52;10.77;;;6.68;;
74632;SDS011;63139;52.018;8.552;2023-05-10T14:23:21;11.20;;;7.68;;
74632;SDS011;63139;52.018;8.552;2023-05-10T14:25:51;12.18;;;8.15;;
74632;SDS011;63139;52.018;8.552;2023-05-10T14:28:22;12.02;;;7.85;;
74632;SDS011;63139;52.018;8.552;2023-05-10T14:30:51;13.48;;;7.72;;
74632;SDS011;63139;52.018;8.552;2023-05-10T14:33:19;11.98;;;8.02;;
74632;SDS011;63139;52.018;8.552;2023-05-10T14:35:49;13.40;;;7.70;;
74632;SDS011;63139;52.018;8.552;2023-05-10T14:38:17;10.43;;;7.25;;
74632;SDS011;63139;52.018;8.552;2023-05-10T14:40:45;11.48;;;7.43;;
74632;SDS011;63139;52.018;8.552;2023-05-10T14:43:14;12.25;;;7.95;;
74632;SDS011;63139;52.018;8.552;2023-05-10T14:45:42;12.25;;;8.30;;
74632;SDS011;63139;52.018;8.552;2023-05-10T14:48:10;13.60;;;8.48;;
74632;SDS011;63139;52.018;8.552;2023-05-10T14:50:41;12.73;;;8.07;;
74632;SDS011;63139;52.018;8.552;2023-05-10T14:53:11;11.07;;;7.90;;
74632;SDS011;63139;52.018;8.552;2023-05-10T14:55:39;11.45;;;8.13;;
74632;SDS011;63139;52.018;8.552;2023-05-10T14:58:07;14.18;;;8.55;;
74632;SDS011;63139;52.018;8.552;2023-05-10T15:00:35;15.75;;;9.15;;
74632;SDS011;63139;52.018;8.552;2023-05-10T15:03:04;15.88;;;9.88;;